Time,TemperatureF,DewpointF,PressureIn,WindDirection,WindDirectionDegrees,WindSpeedMPH,WindSpeedGustMPH,Humidity,HourlyPrecipIn,Conditions,Clouds,dailyrainin,SoftwareType,DateUTC
2013-03-10 00:00:00,43.5,35.1,30.31,NNE,32,0.0,0.0,72,0.00,,OVC120,0.00,VWS V14.01,2013-03-10 05:00:00,
2013-03-10 00:05:00,43.6,35.2,30.31,NNE,33,0.0,0.0,72,0.00,,OVC120,0.00,VWS V14.01,2013-03-10 05:05:00,
2013-03-10 00:10:00,43.6,35.5,30.31,NNE,33,0.0,0.0,73,0.00,,OVC120,0.00,VWS V14.01,2013-03-10 05:10:00,
2013-03-10 00:15:00,43.5,35.4,30.31,NNE,32,0.0,0.0,73,0.00,,OVC120,0.00,VWS V14.01,2013-03-10 05:15:00,
2013-03-10 00:20:00,43.4,35.3,30.31,NNE,32,0.0,0.0,73,0.00,,OVC120,0.00,VWS V14.01,2013-03-10 05:20:00,
2013-03-10 00:25:00,43.3,35.2,30.30,NNE,32,0.0,0.0,73,0.00,,OVC120,0.00,VWS V14.01,2013-03-10 05:25:00,
2013-03-10 00:30:00,43.3,35.6,30.30,NNE,33,0.0,0.0,74,0.00,,OVC120,0.00,VWS V14.01,2013-03-10 05:30:00,
2013-03-10 00:35:00,43.3,35.6,30.30,NNE,33,0.0,0.0,74,0.00,,OVC120,0.00,VWS V14.01,2013-03-10 05:35:00,
2013-03-10 00:40:00,43.1,35.4,30.30,NNE,32,0.0,0.0,74,0.00,,OVC120,0.00,VWS V14.01,2013-03-10 05:40:00,
2013-03-10 00:45:00,42.8,35.1,30.30,NNE,32,0.0,0.0,74,0.00,,OVC120,0.00,VWS V14.01,2013-03-10 05:45:00,
2013-03-10 00:50:00,42.7,35.3,30.29,NNE,33,0.0,0.0,75,0.00,,OVC120,0.00,VWS V14.01,2013-03-10 05:50:00,
2013-03-10 00:55:00,42.8,35.4,30.29,NNE,33,0.0,0.0,75,0.00,,OVC120,0.00,VWS V14.01,2013-03-10 05:55:00,
2013-03-10 00:58:00,41.0,35.0,30.29,NNE,32,0.0,0.0,79,0.00,,CLR,0.00,VWS V14.01,2013-03-10 05:58:00,
2013-03-10 00:59:00,41.0,35.0,30.29,NNE,32,0.0,0.0,79,0.00,,CLR,0.00,VWS V14.01,2013-03-10 05:59:00,
2013-03-10 01:00:00,42.8,35.8,30.29,NNE,33,0.0,0.0,76,0.00,,BKN120,0.00,VWS V14.01,2013-03-10 06:00:00,
2013-03-10 01:05:00,42.8,35.8,30.30,NNE,33,0.0,0.0,76,0.00,,BKN120,0.00,VWS V14.01,2013-03-10 06:05:00,
2013-03-10 01:10:00,42.9,35.9,30.30,NNE,32,0.0,0.0,76,0.00,,BKN120,0.00,VWS V14.01,2013-03-10 06:10:00,
2013-03-10 01:15:00,42.8,35.8,30.30,NNE,33,0.0,0.0,76,0.00,,BKN120,0.00,VWS V14.01,2013-03-10 06:15:00,
2013-03-10 01:20:00,42.8,36.1,30.29,NNE,32,0.0,0.0,77,0.00,,CLR,0.00,VWS V14.01,2013-03-10 06:20:00,
2013-03-10 01:25:00,42.7,35.7,30.29,NNE,32,0.0,0.0,76,0.00,,CLR,0.00,VWS V14.01,2013-03-10 06:25:00,
2013-03-10 01:30:00,42.6,35.6,30.29,NNE,32,0.0,0.0,76,0.00,,CLR,0.00,VWS V14.01,2013-03-10 06:30:00,
2013-03-10 01:35:00,42.5,35.8,30.29,NNE,32,0.0,0.0,77,0.00,,CLR,0.00,VWS V14.01,2013-03-10 06:35:00,
2013-03-10 01:40:00,42.2,35.5,30.29,NNE,32,0.0,0.0,77,0.00,,SCT120,0.00,VWS V14.01,2013-03-10 06:40:00,
2013-03-10 01:45:00,42.0,35.3,30.29,NNE,32,0.0,0.0,77,0.00,,SCT120,0.00,VWS V14.01,2013-03-10 06:45:00,
2013-03-10 01:50:00,41.7,35.0,30.29,NNE,32,0.0,0.0,77,0.00,,SCT120,0.00,VWS V14.01,2013-03-10 06:50:00,
2013-03-10 01:55:00,41.3,35.0,30.29,NNE,32,0.0,0.0,78,0.00,,SCT120,0.00,VWS V14.01,2013-03-10 06:55:00,
2013-03-10 03:00:00,40.9,34.9,30.29,NNE,32,0.0,0.0,79,0.00,,CLR,0.00,VWS V14.01,2013-03-10 07:00:00,
2013-03-10 03:05:00,40.4,34.7,30.28,NNE,32,0.0,0.0,80,0.00,,CLR,0.00,VWS V14.01,2013-03-10 07:05:00,
2013-03-10 03:10:00,39.9,34.5,30.28,NNE,32,0.0,0.0,81,0.00,,CLR,0.00,VWS V14.01,2013-03-10 07:10:00,
2013-03-10 03:15:00,39.5,34.8,30.28,NNE,32,0.0,0.0,83,0.00,,CLR,0.00,VWS V14.01,2013-03-10 07:15:00,
2013-03-10 03:20:00,39.3,34.6,30.28,NNE,33,0.0,0.0,83,0.00,,CLR,0.00,VWS V14.01,2013-03-10 07:20:00,
2013-03-10 03:25:00,39.1,34.4,30.29,NNE,33,0.0,1.0,83,0.00,,CLR,0.00,VWS V14.01,2013-03-10 07:25:00,
2013-03-10 03:30:00,38.9,34.5,30.29,NNE,33,0.0,0.0,84,0.00,,CLR,0.00,VWS V14.01,2013-03-10 07:30:00,
2013-03-10 03:35:00,38.5,34.1,30.28,ESE,118,0.0,0.0,84,0.00,,CLR,0.00,VWS V14.01,2013-03-10 07:35:00,
2013-03-10 03:40:00,38.0,33.6,30.28,SSE,153,0.0,0.0,84,0.00,,CLR,0.00,VWS V14.01,2013-03-10 07:40:00,
2013-03-10 03:45:00,37.8,33.4,30.28,SSE,153,0.0,0.0,84,0.00,,CLR,0.00,VWS V14.01,2013-03-10 07:45:00,
2013-03-10 03:50:00,37.8,33.7,30.28,SSE,153,0.0,0.0,85,0.00,,CLR,0.00,VWS V14.01,2013-03-10 07:50:00,
2013-03-10 03:55:00,37.6,33.5,30.28,SSE,153,0.0,0.0,85,0.00,,CLR,0.00,VWS V14.01,2013-03-10 07:55:00,
2013-03-10 04:00:00,37.3,33.2,30.27,SSE,153,0.0,0.0,85,0.00,,CLR,0.00,VWS V14.01,2013-03-10 08:00:00,
2013-03-10 04:05:00,37.0,32.9,30.28,SSE,153,0.0,0.0,85,0.00,,CLR,0.00,VWS V14.01,2013-03-10 08:05:00,
2013-03-10 04:10:00,36.7,32.9,30.28,SSE,153,0.0,0.0,86,0.00,,CLR,0.00,VWS V14.01,2013-03-10 08:10:00,
2013-03-10 04:15:00,36.5,33.0,30.27,SSE,153,0.0,0.0,87,0.00,,CLR,0.00,VWS V14.01,2013-03-10 08:15:00,
2013-03-10 04:20:00,36.3,32.8,30.27,SSE,153,0.0,0.0,87,0.00,,CLR,0.00,VWS V14.01,2013-03-10 08:20:00,
2013-03-10 04:25:00,36.1,32.6,30.27,SSE,153,0.0,0.0,87,0.00,,CLR,0.00,VWS V14.01,2013-03-10 08:25:00,
2013-03-10 04:30:00,36.1,32.9,30.27,SSE,154,0.0,0.0,88,0.00,,CLR,0.00,VWS V14.01,2013-03-10 08:30:00,
2013-03-10 04:35:00,36.3,33.1,30.27,SSE,153,0.0,0.0,88,0.00,,CLR,0.00,VWS V14.01,2013-03-10 08:35:00,
2013-03-10 04:40:00,36.4,33.2,30.27,SSE,153,0.0,0.0,88,0.00,,CLR,0.00,VWS V14.01,2013-03-10 08:40:00,
2013-03-10 04:45:00,36.4,33.2,30.27,SSE,153,0.0,0.0,88,0.00,,CLR,0.00,VWS V14.01,2013-03-10 08:45:00,
2013-03-10 04:50:00,36.4,33.2,30.28,SSE,153,0.0,0.0,88,0.00,,CLR,0.00,VWS V14.01,2013-03-10 08:50:00,
2013-03-10 04:55:00,36.4,33.2,30.28,SSE,153,0.0,0.0,88,0.00,,CLR,0.00,VWS V14.01,2013-03-10 08:55:00,
2013-03-10 05:00:00,36.5,33.0,30.28,SSE,153,0.0,0.0,87,0.00,,CLR,0.00,VWS V14.01,2013-03-10 09:00:00,
2013-03-10 05:05:00,36.5,33.0,30.28,SSE,153,0.0,0.0,87,0.00,,CLR,0.00,VWS V14.01,2013-03-10 09:05:00,
2013-03-10 05:10:00,36.5,33.0,30.28,SSE,153,0.0,0.0,87,0.00,,CLR,0.00,VWS V14.01,2013-03-10 09:10:00,
2013-03-10 05:15:00,36.5,33.0,30.28,SSE,153,0.0,0.0,87,0.00,,CLR,0.00,VWS V14.01,2013-03-10 09:15:00,
2013-03-10 05:20:00,36.4,32.9,30.28,SSE,153,0.0,0.0,87,0.00,,CLR,0.00,VWS V14.01,2013-03-10 09:20:00,
2013-03-10 05:25:00,36.3,32.5,30.27,SSE,153,0.0,0.0,86,0.00,,CLR,0.00,VWS V14.01,2013-03-10 09:25:00,
2013-03-10 05:30:00,36.2,32.7,30.28,SSE,153,0.0,0.0,87,0.00,,CLR,0.00,VWS V14.01,2013-03-10 09:30:00,
2013-03-10 05:35:00,36.3,32.8,30.28,SSE,153,0.0,0.0,87,0.00,,CLR,0.00,VWS V14.01,2013-03-10 09:35:00,
2013-03-10 05:40:00,36.1,32.6,30.28,SSE,153,0.0,0.0,87,0.00,,CLR,0.00,VWS V14.01,2013-03-10 09:40:00,
2013-03-10 05:45:00,35.8,32.3,30.28,SSE,153,0.0,0.0,87,0.00,,CLR,0.00,VWS V14.01,2013-03-10 09:45:00,
2013-03-10 05:50:00,35.5,32.3,30.28,SSE,153,0.0,0.0,88,0.00,,CLR,0.00,VWS V14.01,2013-03-10 09:50:00,
2013-03-10 05:55:00,35.3,32.1,30.28,SSE,153,0.0,0.0,88,0.00,,CLR,0.00,VWS V14.01,2013-03-10 09:55:00,
2013-03-10 06:00:00,35.1,32.2,30.28,SSE,153,0.0,0.0,89,0.00,,CLR,0.00,VWS V14.01,2013-03-10 10:00:00,
2013-03-10 06:05:00,34.9,32.0,30.28,SSE,153,0.0,0.0,89,0.00,,CLR,0.00,VWS V14.01,2013-03-10 10:05:00,
2013-03-10 06:10:00,34.6,31.7,30.28,SSE,153,0.0,0.0,89,0.00,,CLR,0.00,VWS V14.01,2013-03-10 10:10:00,
2013-03-10 06:15:00,34.3,31.7,30.28,SSE,153,0.0,0.0,90,0.00,,CLR,0.00,VWS V14.01,2013-03-10 10:15:00,
2013-03-10 06:20:00,34.0,31.4,30.28,SSE,153,0.0,0.0,90,0.00,,CLR,0.00,VWS V14.01,2013-03-10 10:20:00,
2013-03-10 06:25:00,33.7,31.1,30.28,SSE,153,0.0,0.0,90,0.00,,CLR,0.00,VWS V14.01,2013-03-10 10:25:00,
2013-03-10 06:30:00,33.6,31.5,30.28,SSE,153,0.0,0.0,92,0.00,,CLR,0.00,VWS V14.01,2013-03-10 10:30:00,
2013-03-10 06:35:00,33.7,31.4,30.28,SSE,153,0.0,0.0,91,0.00,,CLR,0.00,VWS V14.01,2013-03-10 10:35:00,
2013-03-10 06:40:00,33.6,31.3,30.28,SSE,153,0.0,0.0,91,0.00,,CLR,0.00,VWS V14.01,2013-03-10 10:40:00,
2013-03-10 06:45:00,33.4,31.1,30.28,SSE,153,0.0,0.0,91,0.00,,CLR,0.00,VWS V14.01,2013-03-10 10:45:00,
2013-03-10 06:50:00,33.2,30.9,30.29,SSE,153,0.0,0.0,91,0.00,,CLR,0.00,VWS V14.01,2013-03-10 10:50:00,
2013-03-10 06:55:00,32.9,30.6,30.29,SSE,154,0.0,0.0,91,0.00,,CLR,0.00,VWS V14.01,2013-03-10 10:55:00,
2013-03-10 07:00:00,32.7,30.6,30.29,SSE,153,0.0,0.0,92,0.00,,CLR,0.00,VWS V14.01,2013-03-10 11:00:00,
2013-03-10 07:05:00,32.5,30.4,30.29,SSE,153,0.0,0.0,92,0.00,,CLR,0.00,VWS V14.01,2013-03-10 11:05:00,
2013-03-10 07:10:00,32.3,30.2,30.29,SSE,153,0.0,0.0,92,0.00,,CLR,0.00,VWS V14.01,2013-03-10 11:10:00,
2013-03-10 07:15:00,32.1,30.0,30.29,SSE,153,0.0,0.0,92,0.00,,CLR,0.00,VWS V14.01,2013-03-10 11:15:00,
2013-03-10 07:20:00,31.9,30.1,30.29,SSE,153,0.0,0.0,93,0.00,,CLR,0.00,VWS V14.01,2013-03-10 11:20:00,
2013-03-10 07:25:00,31.7,29.9,30.29,SSE,153,0.0,0.0,93,0.00,,CLR,0.00,VWS V14.01,2013-03-10 11:25:00,
2013-03-10 07:30:00,31.7,29.9,30.29,SSE,153,0.0,0.0,93,0.00,,CLR,0.00,VWS V14.01,2013-03-10 11:30:00,
2013-03-10 07:35:00,31.6,30.1,30.29,SSE,154,0.0,0.0,94,0.00,,CLR,0.00,VWS V14.01,2013-03-10 11:35:00,
2013-03-10 07:40:00,31.6,30.1,30.29,SSE,153,0.0,0.0,94,0.00,,CLR,0.00,VWS V14.01,2013-03-10 11:40:00,
2013-03-10 07:45:00,31.5,29.7,30.30,SSE,153,0.0,0.0,93,0.00,,CLR,0.00,VWS V14.01,2013-03-10 11:45:00,
2013-03-10 07:50:00,31.6,30.1,30.30,SSE,153,0.0,0.0,94,0.00,,CLR,0.00,VWS V14.01,2013-03-10 11:50:00,
2013-03-10 07:55:00,31.6,29.8,30.30,SSE,153,0.0,0.0,93,0.00,,CLR,0.00,VWS V14.01,2013-03-10 11:55:00,
2013-03-10 08:00:00,31.4,29.6,30.30,SSE,153,0.0,0.0,93,0.00,,CLR,0.00,VWS V14.01,2013-03-10 12:00:00,
2013-03-10 08:05:00,31.4,29.6,30.30,SSE,153,0.0,0.0,93,0.00,,CLR,0.00,VWS V14.01,2013-03-10 12:05:00,
2013-03-10 08:10:00,31.4,29.6,30.30,SSE,153,0.0,0.0,93,0.00,,CLR,0.00,VWS V14.01,2013-03-10 12:10:00,
2013-03-10 08:15:00,31.5,30.0,30.30,SSE,153,0.0,0.0,94,0.00,,CLR,0.00,VWS V14.01,2013-03-10 12:15:00,
2013-03-10 08:20:00,31.7,30.2,30.30,SSE,154,0.0,0.0,94,0.00,,CLR,0.00,VWS V14.01,2013-03-10 12:20:00,
2013-03-10 08:25:00,32.0,30.5,30.31,SSE,154,0.0,0.0,94,0.00,,CLR,0.00,VWS V14.01,2013-03-10 12:25:00,
2013-03-10 08:30:00,32.5,31.0,30.31,SSE,153,0.0,0.0,94,0.00,,CLR,0.00,VWS V14.01,2013-03-10 12:30:00,
2013-03-10 08:35:00,32.9,31.1,30.31,SSE,153,0.0,0.0,93,0.00,,CLR,0.00,VWS V14.01,2013-03-10 12:35:00,
2013-03-10 08:40:00,33.4,31.6,30.31,SSE,153,0.0,0.0,93,0.00,,CLR,0.00,VWS V14.01,2013-03-10 12:40:00,
2013-03-10 08:45:00,33.9,32.1,30.32,SSE,153,0.0,0.0,93,0.00,,CLR,0.00,VWS V14.01,2013-03-10 12:45:00,
2013-03-10 08:50:00,34.4,32.6,30.32,SSE,153,0.0,0.0,93,0.00,,CLR,0.00,VWS V14.01,2013-03-10 12:50:00,
2013-03-10 08:55:00,34.6,32.5,30.32,SSE,153,0.0,0.0,92,0.00,,CLR,0.00,VWS V14.01,2013-03-10 12:55:00,
2013-03-10 09:00:00,34.8,32.5,30.32,SSE,153,0.0,0.0,91,0.00,,CLR,0.00,VWS V14.01,2013-03-10 13:00:00,
2013-03-10 09:05:00,35.2,32.8,30.32,SSE,153,0.0,0.0,91,0.00,,CLR,0.00,VWS V14.01,2013-03-10 13:05:00,
2013-03-10 09:10:00,35.6,33.2,30.32,SSE,154,0.0,0.0,91,0.00,,CLR,0.00,VWS V14.01,2013-03-10 13:10:00,
2013-03-10 09:15:00,36.0,33.6,30.32,SSE,153,0.0,0.0,91,0.00,,CLR,0.00,VWS V14.01,2013-03-10 13:15:00,
2013-03-10 09:20:00,36.6,34.0,30.33,SSE,153,0.0,0.0,90,0.00,,CLR,0.00,VWS V14.01,2013-03-10 13:20:00,
2013-03-10 09:25:00,37.4,34.7,30.33,SSE,153,0.0,0.0,90,0.00,,CLR,0.00,VWS V14.01,2013-03-10 13:25:00,
2013-03-10 09:30:00,38.3,35.1,30.32,NNE,12,2.0,2.0,88,0.00,,CLR,0.00,VWS V14.01,2013-03-10 13:30:00,
2013-03-10 09:35:00,39.1,35.6,30.33,NNE,20,0.0,0.0,87,0.00,,CLR,0.00,VWS V14.01,2013-03-10 13:35:00,
2013-03-10 09:40:00,40.1,36.0,30.32,NE,38,0.0,1.0,85,0.00,,CLR,0.00,VWS V14.01,2013-03-10 13:40:00,
2013-03-10 09:45:00,41.1,36.3,30.32,NE,38,0.0,0.0,83,0.00,,CLR,0.00,VWS V14.01,2013-03-10 13:45:00,
2013-03-10 09:50:00,42.1,35.8,30.32,NNW,329,2.0,2.0,78,0.00,,CLR,0.00,VWS V14.01,2013-03-10 13:50:00,
2013-03-10 09:55:00,42.7,36.0,30.32,NW,321,1.0,2.0,77,0.00,,CLR,0.00,VWS V14.01,2013-03-10 13:55:00,
2013-03-10 10:00:00,43.6,36.5,30.32,WNW,302,1.0,1.0,76,0.00,,CLR,0.00,VWS V14.01,2013-03-10 14:00:00,
2013-03-10 10:05:00,44.4,36.3,30.32,NW,312,1.0,1.0,73,0.00,,CLR,0.00,VWS V14.01,2013-03-10 14:05:00,
2013-03-10 10:10:00,45.3,36.5,30.32,NW,308,0.0,1.0,71,0.00,,CLR,0.00,VWS V14.01,2013-03-10 14:10:00,
2013-03-10 10:15:00,46.2,37.0,30.32,NNE,15,0.0,1.0,70,0.00,,CLR,0.00,VWS V14.01,2013-03-10 14:15:00,
2013-03-10 10:20:00,46.8,36.4,30.32,WNW,299,1.0,1.0,67,0.00,,CLR,0.00,VWS V14.01,2013-03-10 14:20:00,
2013-03-10 10:25:00,47.3,36.5,30.32,North,352,0.0,1.0,66,0.00,,CLR,0.00,VWS V14.01,2013-03-10 14:25:00,
2013-03-10 10:30:00,47.8,36.6,30.32,NW,313,1.0,1.0,65,0.00,,CLR,0.00,VWS V14.01,2013-03-10 14:30:00,
2013-03-10 10:35:00,48.2,36.6,30.32,NW,318,1.0,1.0,64,0.00,,CLR,0.00,VWS V14.01,2013-03-10 14:35:00,
2013-03-10 10:40:00,48.9,36.5,30.32,NW,307,2.0,2.0,62,0.00,,CLR,0.00,VWS V14.01,2013-03-10 14:40:00,
2013-03-10 10:45:00,48.9,36.1,30.32,NW,314,2.0,3.0,61,0.00,,CLR,0.00,VWS V14.01,2013-03-10 14:45:00,
2013-03-10 10:50:00,48.9,36.1,30.32,NW,308,1.0,3.0,61,0.00,,CLR,0.00,VWS V14.01,2013-03-10 14:50:00,
2013-03-10 10:55:00,49.1,36.7,30.32,NNE,33,0.0,1.0,62,0.00,,CLR,0.00,VWS V14.01,2013-03-10 14:55:00,
2013-03-10 11:00:00,49.7,36.4,30.32,North,10,2.0,3.0,60,0.00,,CLR,0.00,VWS V14.01,2013-03-10 15:00:00,
2013-03-10 11:05:00,50.3,36.5,30.32,SE,134,0.0,0.0,59,0.00,,CLR,0.00,VWS V14.01,2013-03-10 15:05:00,
2013-03-10 11:10:00,50.8,36.1,30.32,NW,317,2.0,2.0,57,0.00,,CLR,0.00,VWS V14.01,2013-03-10 15:10:00,
2013-03-10 11:15:00,51.2,36.5,30.32,NW,311,2.0,4.0,57,0.00,,CLR,0.00,VWS V14.01,2013-03-10 15:15:00,
2013-03-10 11:20:00,51.7,36.5,30.32,NW,305,2.0,3.0,56,0.00,,CLR,0.00,VWS V14.01,2013-03-10 15:20:00,
2013-03-10 11:25:00,52.2,36.5,30.32,WNW,294,2.0,3.0,55,0.00,,CLR,0.00,VWS V14.01,2013-03-10 15:25:00,
2013-03-10 11:30:00,53.1,36.9,30.32,North,357,1.0,1.0,54,0.00,,CLR,0.00,VWS V14.01,2013-03-10 15:30:00,
2013-03-10 11:35:00,54.3,36.6,30.31,NNW,330,0.0,1.0,51,0.00,,CLR,0.00,VWS V14.01,2013-03-10 15:35:00,
2013-03-10 11:40:00,55.4,36.6,30.31,NNE,25,1.0,3.0,49,0.00,,CLR,0.00,VWS V14.01,2013-03-10 15:40:00,
2013-03-10 11:45:00,56.4,34.8,30.31,NW,305,3.0,4.0,44,0.00,,CLR,0.00,VWS V14.01,2013-03-10 15:45:00,
2013-03-10 11:50:00,57.2,36.1,30.31,NNW,331,1.0,3.0,45,0.00,,CLR,0.00,VWS V14.01,2013-03-10 15:50:00,
2013-03-10 11:55:00,58.0,35.1,30.30,WNW,294,3.0,5.0,42,0.00,,CLR,0.00,VWS V14.01,2013-03-10 15:55:00,
2013-03-10 12:00:00,58.3,35.9,30.30,East,87,1.0,2.0,43,0.00,,CLR,0.00,VWS V14.01,2013-03-10 16:00:00,
2013-03-10 12:05:00,58.4,36.6,30.30,North,351,2.0,2.0,44,0.00,,CLR,0.00,VWS V14.01,2013-03-10 16:05:00,
2013-03-10 12:10:00,58.4,36.6,30.30,SE,142,0.0,1.0,44,0.00,,CLR,0.00,VWS V14.01,2013-03-10 16:10:00,
2013-03-10 12:15:00,58.6,36.8,30.30,NE,36,2.0,4.0,44,0.00,,CLR,0.00,VWS V14.01,2013-03-10 16:15:00,
2013-03-10 12:20:00,58.8,37.0,30.29,NE,39,2.0,3.0,44,0.00,,CLR,0.00,VWS V14.01,2013-03-10 16:20:00,
2013-03-10 12:25:00,59.1,36.7,30.29,NNE,25,2.0,4.0,43,0.00,,CLR,0.00,VWS V14.01,2013-03-10 16:25:00,
2013-03-10 12:30:00,59.0,36.6,30.29,WNW,302,2.0,3.0,43,0.00,,CLR,0.00,VWS V14.01,2013-03-10 16:30:00,
2013-03-10 12:35:00,59.3,37.4,30.29,NNE,15,4.0,4.0,44,0.00,,CLR,0.00,VWS V14.01,2013-03-10 16:35:00,
2013-03-10 12:40:00,59.4,35.7,30.29,North,1,0.0,3.0,41,0.00,,CLR,0.00,VWS V14.01,2013-03-10 16:40:00,
2013-03-10 12:45:00,60.0,36.9,30.28,NNE,23,2.0,4.0,42,0.00,,CLR,0.00,VWS V14.01,2013-03-10 16:45:00,
2013-03-10 12:50:00,60.1,35.7,30.28,North,7,7.0,7.0,40,0.00,,CLR,0.00,VWS V14.01,2013-03-10 16:50:00,
2013-03-10 12:55:00,60.0,36.2,30.28,NNW,340,3.0,3.0,41,0.00,,CLR,0.00,VWS V14.01,2013-03-10 16:55:00,
2013-03-10 13:00:00,60.3,35.3,30.27,ENE,58,3.0,5.0,39,0.00,,CLR,0.00,VWS V14.01,2013-03-10 17:00:00,
2013-03-10 13:05:00,60.4,36.0,30.27,North,353,1.0,3.0,40,0.00,,CLR,0.00,VWS V14.01,2013-03-10 17:05:00,
2013-03-10 13:10:00,60.9,35.8,30.26,NNW,330,3.0,4.0,39,0.00,,CLR,0.00,VWS V14.01,2013-03-10 17:10:00,
2013-03-10 13:15:00,60.9,35.8,30.26,NW,311,2.0,5.0,39,0.00,,CLR,0.00,VWS V14.01,2013-03-10 17:15:00,
2013-03-10 13:20:00,61.3,35.5,30.26,SW,226,0.0,1.0,38,0.00,,CLR,0.00,VWS V14.01,2013-03-10 17:20:00,
2013-03-10 13:25:00,61.9,35.4,30.26,SE,127,2.0,6.0,37,0.00,,CLR,0.00,VWS V14.01,2013-03-10 17:25:00,
2013-03-10 13:30:00,61.5,36.3,30.26,NE,52,3.0,5.0,39,0.00,,CLR,0.00,VWS V14.01,2013-03-10 17:30:00,
2013-03-10 13:35:00,61.9,36.0,30.25,North,349,3.0,8.0,38,0.00,,CLR,0.00,VWS V14.01,2013-03-10 17:35:00,
2013-03-10 13:40:00,62.7,37.4,30.25,NNW,342,0.0,3.0,39,0.00,,CLR,0.00,VWS V14.01,2013-03-10 17:40:00,
2013-03-10 13:45:00,63.7,35.6,30.25,SW,232,2.0,4.0,35,0.00,,CLR,0.00,VWS V14.01,2013-03-10 17:45:00,
2013-03-10 13:50:00,63.4,34.6,30.25,SSW,204,4.0,10.0,34,0.00,,CLR,0.00,VWS V14.01,2013-03-10 17:50:00,
2013-03-10 13:55:00,63.4,33.8,30.24,ESE,108,3.0,7.0,33,0.00,,CLR,0.00,VWS V14.01,2013-03-10 17:55:00,
2013-03-10 14:00:00,63.2,33.6,30.24,SE,126,5.0,9.0,33,0.00,,CLR,0.00,VWS V14.01,2013-03-10 18:00:00,
2013-03-10 14:05:00,63.9,34.3,30.24,SSE,156,5.0,8.0,33,0.00,,CLR,0.00,VWS V14.01,2013-03-10 18:05:00,
2013-03-10 14:10:00,64.2,33.0,30.24,South,175,1.0,7.0,31,0.00,,CLR,0.00,VWS V14.01,2013-03-10 18:10:00,
2013-03-10 14:15:00,64.4,32.3,30.24,SSE,166,7.0,10.0,30,0.00,,CLR,0.00,VWS V14.01,2013-03-10 18:15:00,
2013-03-10 14:20:00,64.4,32.3,30.23,SSW,198,3.0,8.0,30,0.00,,CLR,0.00,VWS V14.01,2013-03-10 18:20:00,
2013-03-10 14:25:00,64.7,32.6,30.23,SW,225,8.0,8.0,30,0.00,,CLR,0.00,VWS V14.01,2013-03-10 18:25:00,
2013-03-10 14:30:00,64.3,33.0,30.23,South,188,3.0,7.0,31,0.00,,CLR,0.00,VWS V14.01,2013-03-10 18:30:00,
2013-03-10 14:35:00,64.7,33.4,30.23,SW,234,2.0,9.0,31,0.00,,CLR,0.00,VWS V14.01,2013-03-10 18:35:00,
2013-03-10 14:40:00,64.5,34.0,30.22,South,178,3.0,10.0,32,0.00,,CLR,0.00,VWS V14.01,2013-03-10 18:40:00,
2013-03-10 14:45:00,64.8,34.3,30.22,SW,229,3.0,4.0,32,0.00,,CLR,0.00,VWS V14.01,2013-03-10 18:45:00,
2013-03-10 14:50:00,64.4,33.1,30.21,SE,125,5.0,6.0,31,0.00,,CLR,0.00,VWS V14.01,2013-03-10 18:50:00,
2013-03-10 14:55:00,64.4,33.1,30.21,SSW,204,3.0,6.0,31,0.00,,CLR,0.00,VWS V14.01,2013-03-10 18:55:00,
2013-03-10 15:00:00,64.7,33.4,30.21,South,172,1.0,3.0,31,0.00,,CLR,0.00,VWS V14.01,2013-03-10 19:00:00,
2013-03-10 15:05:00,64.5,34.8,30.21,NE,43,4.0,11.0,33,0.00,,CLR,0.00,VWS V14.01,2013-03-10 19:05:00,
2013-03-10 15:10:00,65.1,35.3,30.21,South,188,4.0,7.0,33,0.00,,CLR,0.00,VWS V14.01,2013-03-10 19:10:00,
2013-03-10 15:15:00,65.6,33.4,30.21,WSW,245,4.0,4.0,30,0.00,,CLR,0.00,VWS V14.01,2013-03-10 19:15:00,
2013-03-10 15:20:00,66.5,34.1,30.20,SE,125,2.0,4.0,30,0.00,,CLR,0.00,VWS V14.01,2013-03-10 19:20:00,
2013-03-10 15:25:00,66.4,34.0,30.21,SW,222,5.0,8.0,30,0.00,,CLR,0.00,VWS V14.01,2013-03-10 19:25:00,
2013-03-10 15:30:00,66.0,35.3,30.20,SW,224,5.0,6.0,32,0.00,,CLR,0.00,VWS V14.01,2013-03-10 19:30:00,
2013-03-10 15:35:00,66.2,35.5,30.20,ENE,75,3.0,5.0,32,0.00,,CLR,0.00,VWS V14.01,2013-03-10 19:35:00,
2013-03-10 15:40:00,65.8,35.2,30.20,SE,125,3.0,5.0,32,0.00,,CLR,0.00,VWS V14.01,2013-03-10 19:40:00,
2013-03-10 15:45:00,65.9,34.4,30.20,SSW,212,5.0,6.0,31,0.00,,CLR,0.00,VWS V14.01,2013-03-10 19:45:00,
2013-03-10 15:50:00,65.9,35.2,30.20,SSW,201,1.0,3.0,32,0.00,,CLR,0.00,VWS V14.01,2013-03-10 19:50:00,
2013-03-10 15:55:00,65.6,35.0,30.20,SSE,166,1.0,4.0,32,0.00,,CLR,0.00,VWS V14.01,2013-03-10 19:55:00,
2013-03-10 16:00:00,65.1,33.7,30.20,SW,219,5.0,8.0,31,0.00,,CLR,0.00,VWS V14.01,2013-03-10 20:00:00,
2013-03-10 16:05:00,65.2,33.8,30.20,SSW,207,4.0,6.0,31,0.00,,CLR,0.00,VWS V14.01,2013-03-10 20:05:00,
2013-03-10 16:10:00,65.2,33.0,30.20,SW,218,3.0,4.0,30,0.00,,CLR,0.00,VWS V14.01,2013-03-10 20:10:00,
2013-03-10 16:15:00,65.1,33.7,30.20,SW,218,4.0,5.0,31,0.00,,CLR,0.00,VWS V14.01,2013-03-10 20:15:00,
2013-03-10 16:20:00,65.2,33.8,30.20,SW,229,4.0,11.0,31,0.00,,CLR,0.00,VWS V14.01,2013-03-10 20:20:00,
2013-03-10 16:25:00,64.9,34.4,30.20,South,191,3.0,5.0,32,0.00,,CLR,0.00,VWS V14.01,2013-03-10 20:25:00,
2013-03-10 16:30:00,65.1,34.5,30.20,SE,138,7.0,9.0,32,0.00,,CLR,0.00,VWS V14.01,2013-03-10 20:30:00,
2013-03-10 16:35:00,65.1,34.5,30.19,SSE,162,1.0,8.0,32,0.00,,CLR,0.00,VWS V14.01,2013-03-10 20:35:00,
2013-03-10 16:40:00,65.2,34.6,30.19,SW,229,2.0,8.0,32,0.00,,CLR,0.00,VWS V14.01,2013-03-10 20:40:00,
2013-03-10 16:45:00,65.3,34.7,30.19,SW,219,2.0,4.0,32,0.00,,CLR,0.00,VWS V14.01,2013-03-10 20:45:00,
2013-03-10 16:50:00,65.5,34.9,30.19,SE,145,1.0,5.0,32,0.00,,CLR,0.00,VWS V14.01,2013-03-10 20:50:00,
2013-03-10 16:55:00,65.6,34.2,30.18,SSE,155,4.0,6.0,31,0.00,,CLR,0.00,VWS V14.01,2013-03-10 20:55:00,
2013-03-10 17:00:00,65.6,35.8,30.18,SW,234,7.0,7.0,33,0.00,,CLR,0.00,VWS V14.01,2013-03-10 21:00:00,
2013-03-10 17:07:00,65.6,34.2,30.19,SSE,158,5.0,8.0,31,0.00,,CLR,0.00,VWS V14.01,2013-03-10 21:07:00,
2013-03-10 17:12:00,64.7,34.2,30.19,SSW,212,5.0,9.0,32,0.00,,CLR,0.00,VWS V14.01,2013-03-10 21:12:00,
2013-03-10 17:17:00,64.3,34.6,30.18,South,176,0.0,4.0,33,0.00,,CLR,0.00,VWS V14.01,2013-03-10 21:17:00,
2013-03-10 17:22:00,64.4,34.7,30.19,South,172,3.0,5.0,33,0.00,,CLR,0.00,VWS V14.01,2013-03-10 21:22:00,
2013-03-10 17:27:00,64.3,33.8,30.19,SE,124,4.0,7.0,32,0.00,,CLR,0.00,VWS V14.01,2013-03-10 21:27:00,
2013-03-10 17:32:00,64.0,34.3,30.18,SSE,166,7.0,7.0,33,0.00,,CLR,0.00,VWS V14.01,2013-03-10 21:32:00,
2013-03-10 17:37:00,64.0,34.3,30.18,South,172,2.0,5.0,33,0.00,,CLR,0.00,VWS V14.01,2013-03-10 21:37:00,
2013-03-10 17:43:00,63.8,32.6,30.18,SSE,158,4.0,7.0,31,0.00,,CLR,0.00,VWS V14.01,2013-03-10 21:43:00,
2013-03-10 17:48:00,63.5,33.1,30.18,SSE,165,3.0,7.0,32,0.00,,CLR,0.00,VWS V14.01,2013-03-10 21:48:00,
2013-03-10 17:53:00,63.5,33.1,30.18,SSE,153,6.0,6.0,32,0.00,,CLR,0.00,VWS V14.01,2013-03-10 21:53:00,
2013-03-10 17:58:00,63.5,33.1,30.18,SW,233,3.0,5.0,32,0.00,,CLR,0.00,VWS V14.01,2013-03-10 21:58:00,
2013-03-10 18:03:00,63.5,33.1,30.18,SSW,210,3.0,6.0,32,0.00,,CLR,0.00,VWS V14.01,2013-03-10 22:03:00,
2013-03-10 18:08:00,63.3,33.0,30.17,WSW,251,2.0,9.0,32,0.00,,CLR,0.00,VWS V14.01,2013-03-10 22:08:00,
2013-03-10 18:13:00,63.2,32.9,30.17,SW,233,5.0,7.0,32,0.00,,CLR,0.00,VWS V14.01,2013-03-10 22:13:00,
2013-03-10 18:18:00,63.1,32.8,30.18,SW,233,2.0,4.0,32,0.00,,CLR,0.00,VWS V14.01,2013-03-10 22:18:00,
2013-03-10 18:23:00,63.0,33.5,30.18,SSE,148,2.0,4.0,33,0.00,,CLR,0.00,VWS V14.01,2013-03-10 22:23:00,
2013-03-10 18:28:00,62.8,33.3,30.18,SSE,151,5.0,5.0,33,0.00,,CLR,0.00,VWS V14.01,2013-03-10 22:28:00,
2013-03-10 18:33:00,62.7,33.2,30.18,SSW,212,2.0,4.0,33,0.00,,CLR,0.00,VWS V14.01,2013-03-10 22:33:00,
2013-03-10 18:38:00,62.5,33.8,30.18,SE,146,2.0,4.0,34,0.00,,CLR,0.00,VWS V14.01,2013-03-10 22:38:00,
2013-03-10 18:43:00,62.4,33.7,30.18,SSW,212,2.0,3.0,34,0.00,,CLR,0.00,VWS V14.01,2013-03-10 22:43:00,
2013-03-10 18:48:00,62.3,33.6,30.19,SSW,199,3.0,5.0,34,0.00,,CLR,0.00,VWS V14.01,2013-03-10 22:48:00,
2013-03-10 18:53:00,62.2,33.5,30.19,SW,221,2.0,2.0,34,0.00,,CLR,0.00,VWS V14.01,2013-03-10 22:53:00,
2013-03-10 18:58:00,62.0,34.1,30.19,SW,229,0.0,2.0,35,0.00,,CLR,0.00,VWS V14.01,2013-03-10 22:58:00,
2013-03-10 19:03:00,61.8,33.9,30.19,SW,215,2.0,3.0,35,0.00,,CLR,0.00,VWS V14.01,2013-03-10 23:03:00,
2013-03-10 19:08:00,61.5,33.6,30.19,SW,223,1.0,2.0,35,0.00,,CLR,0.00,VWS V14.01,2013-03-10 23:08:00,
2013-03-10 19:13:00,61.3,34.1,30.20,SSW,212,1.0,1.0,36,0.00,,CLR,0.00,VWS V14.01,2013-03-10 23:13:00,
2013-03-10 19:18:00,61.0,33.9,30.19,SSW,196,1.0,1.0,36,0.00,,CLR,0.00,VWS V14.01,2013-03-10 23:18:00,
2013-03-10 19:23:00,60.7,33.6,30.19,SSW,200,2.0,3.0,36,0.00,,CLR,0.00,VWS V14.01,2013-03-10 23:23:00,
2013-03-10 19:28:00,60.4,33.3,30.19,SSW,212,1.0,3.0,36,0.00,,CLR,0.00,VWS V14.01,2013-03-10 23:28:00,
2013-03-10 19:33:00,60.3,33.3,30.19,SSW,210,1.0,2.0,36,0.00,,CLR,0.00,VWS V14.01,2013-03-10 23:33:00,
2013-03-10 19:38:00,60.1,33.8,30.20,SW,224,1.0,1.0,37,0.00,,CLR,0.00,VWS V14.01,2013-03-10 23:38:00,
2013-03-10 19:43:00,59.8,33.5,30.21,SW,215,1.0,1.0,37,0.00,,CLR,0.00,VWS V14.01,2013-03-10 23:43:00,
2013-03-10 19:48:00,59.4,34.5,30.20,SSE,150,1.0,2.0,39,0.00,,CLR,0.00,VWS V14.01,2013-03-10 23:48:00,
2013-03-10 19:53:00,58.7,33.8,30.20,SSW,212,1.0,2.0,39,0.00,,CLR,0.00,VWS V14.01,2013-03-10 23:53:00,
2013-03-10 19:58:00,58.4,34.2,30.20,SSW,212,0.0,0.0,40,0.00,,CLR,0.00,VWS V14.01,2013-03-10 23:58:00,
2013-03-10 20:03:00,57.6,34.1,30.19,SSW,212,0.0,0.0,41,0.00,,CLR,0.00,VWS V14.01,2013-03-11 00:03:00,
2013-03-10 20:08:00,57.0,33.5,30.19,SSW,212,0.0,0.0,41,0.00,,CLR,0.00,VWS V14.01,2013-03-11 00:08:00,
2013-03-10 20:13:00,56.4,35.3,30.20,SSE,158,0.0,1.0,45,0.00,,CLR,0.00,VWS V14.01,2013-03-11 00:13:00,
2013-03-10 20:18:00,56.1,33.9,30.20,SSW,210,0.0,1.0,43,0.00,,CLR,0.00,VWS V14.01,2013-03-11 00:18:00,
2013-03-10 20:23:00,55.4,34.4,30.20,SSE,153,0.0,2.0,45,0.00,,CLR,0.00,VWS V14.01,2013-03-11 00:23:00,
2013-03-10 20:28:00,55.2,34.2,30.20,SSW,207,1.0,2.0,45,0.00,,CLR,0.00,VWS V14.01,2013-03-11 00:28:00,
2013-03-10 20:33:00,55.7,34.7,30.20,SSW,196,0.0,0.0,45,0.00,,CLR,0.00,VWS V14.01,2013-03-11 00:33:00,
2013-03-10 20:38:00,55.6,34.0,30.20,SW,219,1.0,1.0,44,0.00,,CLR,0.00,VWS V14.01,2013-03-11 00:38:00,
2013-03-10 20:43:00,55.9,34.9,30.20,South,180,1.0,1.0,45,0.00,,CLR,0.00,VWS V14.01,2013-03-11 00:43:00,
2013-03-10 20:48:00,55.9,34.3,30.21,SW,224,1.0,1.0,44,0.00,,CLR,0.00,VWS V14.01,2013-03-11 00:48:00,
2013-03-10 20:53:00,55.6,34.6,30.21,SSE,148,1.0,1.0,45,0.00,,CLR,0.00,VWS V14.01,2013-03-11 00:53:00,
2013-03-10 20:58:00,55.3,34.9,30.21,South,174,0.0,1.0,46,0.00,,CLR,0.00,VWS V14.01,2013-03-11 00:58:00,
2013-03-10 21:03:00,55.1,34.7,30.21,SSE,162,0.0,0.0,46,0.00,,CLR,0.00,VWS V14.01,2013-03-11 01:03:00,
2013-03-10 21:08:00,54.8,35.0,30.22,SSE,162,0.0,0.0,47,0.00,,CLR,0.00,VWS V14.01,2013-03-11 01:08:00,
2013-03-10 21:14:00,54.5,34.7,30.22,SSE,162,0.0,0.0,47,0.00,,CLR,0.00,VWS V14.01,2013-03-11 01:14:00,
2013-03-10 21:19:00,54.4,35.7,30.22,SSE,153,0.0,1.0,49,0.00,,CLR,0.00,VWS V14.01,2013-03-11 01:19:00,
2013-03-10 21:24:00,52.9,34.3,30.22,SSE,155,0.0,2.0,49,0.00,,CLR,0.00,VWS V14.01,2013-03-11 01:24:00,
2013-03-10 21:29:00,52.6,34.5,30.21,SSE,157,1.0,2.0,50,0.00,,CLR,0.00,VWS V14.01,2013-03-11 01:29:00,
2013-03-10 21:34:00,52.5,34.4,30.21,SSE,153,0.0,1.0,50,0.00,,CLR,0.00,VWS V14.01,2013-03-11 01:34:00,
2013-03-10 21:39:00,52.1,34.0,30.21,SSE,153,0.0,0.0,50,0.00,,CLR,0.00,VWS V14.01,2013-03-11 01:39:00,
2013-03-10 21:44:00,51.9,34.4,30.21,SSE,157,0.0,0.0,51,0.00,,CLR,0.00,VWS V14.01,2013-03-11 01:44:00,
2013-03-10 21:49:00,51.5,34.5,30.20,SSE,158,1.0,2.0,52,0.00,,CLR,0.00,VWS V14.01,2013-03-11 01:49:00,
2013-03-10 21:54:00,51.1,34.1,30.20,SSE,158,0.0,0.0,52,0.00,,CLR,0.00,VWS V14.01,2013-03-11 01:54:00,
2013-03-10 21:59:00,51.2,34.7,30.20,SSE,158,0.0,0.0,53,0.00,,CLR,0.00,VWS V14.01,2013-03-11 01:59:00,
2013-03-10 22:04:00,50.4,35.3,30.20,SSE,158,0.0,0.0,56,0.00,,CLR,0.00,VWS V14.01,2013-03-11 02:04:00,
2013-03-10 22:09:00,49.6,34.6,30.20,SW,222,0.0,0.0,56,0.00,,CLR,0.00,VWS V14.01,2013-03-11 02:09:00,
2013-03-10 22:14:00,50.0,34.9,30.21,SW,222,1.0,1.0,56,0.00,,CLR,0.00,VWS V14.01,2013-03-11 02:14:00,
2013-03-10 22:19:00,49.6,35.0,30.21,SSE,150,1.0,1.0,57,0.00,,CLR,0.00,VWS V14.01,2013-03-11 02:19:00,
2013-03-10 22:24:00,49.0,35.3,30.21,SSE,165,0.0,0.0,59,0.00,,CLR,0.00,VWS V14.01,2013-03-11 02:24:00,
2013-03-10 22:29:00,48.4,34.8,30.21,SSE,165,0.0,0.0,59,0.00,,CLR,0.00,VWS V14.01,2013-03-11 02:29:00,
2013-03-10 22:34:00,47.9,35.1,30.22,SSE,160,0.0,0.0,61,0.00,,CLR,0.00,VWS V14.01,2013-03-11 02:34:00,
2013-03-10 22:39:00,47.4,35.0,30.22,SSE,159,0.0,0.0,62,0.00,,CLR,0.00,VWS V14.01,2013-03-11 02:39:00,
2013-03-10 22:44:00,47.0,35.1,30.22,SSE,151,0.0,0.0,63,0.00,,CLR,0.00,VWS V14.01,2013-03-11 02:44:00,
2013-03-10 22:49:00,46.9,35.0,30.22,SSE,158,2.0,2.0,63,0.00,,CLR,0.00,VWS V14.01,2013-03-11 02:49:00,
2013-03-10 22:54:00,47.4,34.2,30.22,SSE,162,2.0,2.0,60,0.00,,CLR,0.00,VWS V14.01,2013-03-11 02:54:00,
2013-03-10 22:59:00,47.7,34.5,30.21,SSE,160,0.0,2.0,60,0.00,,CLR,0.00,VWS V14.01,2013-03-11 02:59:00,
2013-03-10 23:04:00,47.5,34.7,30.21,SSE,157,0.0,2.0,61,0.00,,CLR,0.00,VWS V14.01,2013-03-11 03:04:00,
2013-03-10 23:09:00,48.0,34.8,30.21,SSE,157,3.0,3.0,60,0.00,,CLR,0.00,VWS V14.01,2013-03-11 03:09:00,
2013-03-10 23:14:00,48.8,34.7,30.20,SSE,153,1.0,2.0,58,0.00,,CLR,0.00,VWS V14.01,2013-03-11 03:14:00,
2013-03-10 23:19:00,49.9,34.8,30.20,SSE,156,0.0,2.0,56,0.00,,CLR,0.00,VWS V14.01,2013-03-11 03:19:00,
2013-03-10 23:24:00,50.6,34.6,30.20,SSE,163,0.0,2.0,54,0.00,,CLR,0.00,VWS V14.01,2013-03-11 03:24:00,
2013-03-10 23:29:00,50.5,34.5,30.20,SSW,194,1.0,2.0,54,0.00,,CLR,0.00,VWS V14.01,2013-03-11 03:29:00,
2013-03-10 23:34:00,50.6,34.6,30.21,SSE,160,1.0,1.0,54,0.00,,CLR,0.00,VWS V14.01,2013-03-11 03:34:00,
2013-03-10 23:39:00,50.8,34.8,30.21,SSE,154,0.0,2.0,54,0.00,,CLR,0.00,VWS V14.01,2013-03-11 03:39:00,
2013-03-10 23:44:00,51.3,34.8,30.20,SE,142,1.0,1.0,53,0.00,,CLR,0.00,VWS V14.01,2013-03-11 03:44:00,
2013-03-10 23:49:00,52.2,34.6,30.20,SSE,156,2.0,2.0,51,0.00,,CLR,0.00,VWS V14.01,2013-03-11 03:49:00,
2013-03-10 23:54:00,52.6,34.5,30.20,SSE,152,1.0,1.0,50,0.00,,CLR,0.00,VWS V14.01,2013-03-11 03:54:00,
2013-03-10 23:59:00,52.8,34.2,30.20,SSE,159,0.0,0.0,49,0.00,,CLR,0.00,VWS V14.01,2013-03-11 03:59:00,